Mariner Of The Seas — C6FV9 — position and weather

sailwx.info

Track history (hours):
 
Tides and Currents Weather Stations Pressure Air Temp Water Temp Dewpoint Dewpoint Depression Visibility Wind Speed Wind Dir Waves Ship Positions

Mariner Of The Seas

Operator: Royal Caribbean Cruises Ltd

Last reported at 2019-Feb-21 08:00 UTC. Time now 2019-Feb-21 13:08 UTC.
Position N 25°54' W 077°30'.

Type: Passenger vessel. MMSI: 311493000.

Wind from 140 at 18 knots

Barometer 1020.0 mb
Air temperature 23.0 ° C
Visibility: greater than 10.8 NM
Water temperature 27.0 ° C

Date/timePositionNaut miles runAvg speedWind from/ knotsBaromVisibWave heightAir tempDewpointWater temp
2019-Feb-21 08:00N 25°54' W 077°30'16 0.3 140 / 181020.010.8 23.0 27.0
2019-Feb-19 09:27N 25°38' W 077°26'612.8
2019-Feb-19 09:00N 25°43' W 077°29'8 7.6
2019-Feb-19 08:00N 25°48' W 077°36'10213.5 100 / 131021.410.8 23.0 27.0
2019-Feb-19 00:28N 26°07' W 079°27'816.5
2019-Feb-19 00:00N 26°03' W 079°35'916.8
2019-Feb-18 23:30N 25°59' W 079°43'917.3
2019-Feb-18 23:00N 25°53' W 079°50'816.7
2019-Feb-18 22:30N 25°49' W 079°58'613.0
2019-Feb-18 22:00N 25°46' W 080°04'5 9.0
2019-Feb-18 21:30N 25°46' W 080°09'0 0.2
2019-Feb-18 21:00N 25°46' W 080°09'0 0.0
2019-Feb-18 20:27N 25°46' W 080°09'0 0.0
2019-Feb-18 20:00N 25°46' W 080°09'0 0.0
2019-Feb-18 19:30N 25°46' W 080°09'0 0.0
2019-Feb-18 19:00N 25°46' W 080°09'0 0.0
2019-Feb-18 18:30N 25°46' W 080°09'0 0.0
2019-Feb-18 18:00N 25°46' W 080°09'0 0.0
2019-Feb-18 17:30N 25°46' W 080°09'0 0.0
2019-Feb-18 17:00N 25°46' W 080°09'0 0.0
2019-Feb-18 16:30N 25°46' W 080°09'0 0.0
2019-Feb-18 16:00N 25°46' W 080°09'0 0.0
2019-Feb-18 15:30N 25°46' W 080°09'0 0.0
2019-Feb-18 15:00N 25°46' W 080°09'0 0.0
2019-Feb-18 14:30N 25°46' W 080°09'0 0.0
2019-Feb-18 14:00N 25°46' W 080°09'0 0.0
2019-Feb-18 13:30N 25°46' W 080°09'0 0.0
2019-Feb-18 13:00N 25°46' W 080°09'0 0.0
2019-Feb-18 12:30N 25°46' W 080°09'0 0.0
2019-Feb-18 12:00N 25°46' W 080°09'0 0.0
2019-Feb-18 11:30N 25°46' W 080°09'0 0.0
2019-Feb-18 11:00N 25°46' W 080°09'1 3.0
2019-Feb-18 10:30N 25°47' W 080°11'2 4.5
2019-Feb-18 10:00N 25°46' W 080°09'612.5
2019-Feb-18 09:30N 25°47' W 080°02'5 9.2
2019-Feb-18 09:01N 25°49' W 079°57'611.1
2019-Feb-18 08:30N 25°52' W 079°52'8314.0
2019-Feb-18 02:35N 26°02' W 078°21'72 3.9
2019-Feb-17 08:00N 25°18' W 077°18'81 3.4 200 / 71014.510.8 22.0 27.0
2019-Feb-16 08:00N 26°06' W 078°30'52 9.4 200 / 101012.510.8 21.0 27.0
2019-Feb-16 02:27N 26°07' W 079°28'5 9.2
2019-Feb-16 01:57N 26°05' W 079°32'4 9.2
2019-Feb-16 01:30N 26°03' W 079°36'5 9.4
2019-Feb-16 01:00N 25°60' W 079°41'5 9.1
2019-Feb-16 00:29N 25°57' W 079°45'4 8.8
2019-Feb-16 00:00N 25°55' W 079°49'4 8.8
2019-Feb-15 23:30N 25°53' W 079°53'4 9.0
2019-Feb-15 23:00N 25°51' W 079°58'4 9.0
2019-Feb-15 22:30N 25°49' W 080°02'510.6
2019-Feb-15 22:00N 25°45' W 080°07'3 5.2
2019-Feb-15 21:30N 25°46' W 080°09'0 0.0
2019-Feb-15 21:00N 25°46' W 080°09'0 0.0
2019-Feb-15 20:30N 25°46' W 080°09'0 0.0
2019-Feb-15 20:00N 25°46' W 080°09'0 0.0
2019-Feb-15 19:30N 25°46' W 080°09'0 0.0
2019-Feb-15 19:00N 25°46' W 080°09'0 0.0
2019-Feb-15 18:30N 25°46' W 080°09'0 0.0
2019-Feb-15 17:57N 25°46' W 080°09'0 0.0
2019-Feb-15 17:30N 25°46' W 080°09'0 0.0
2019-Feb-15 17:00N 25°46' W 080°09'0 0.0
2019-Feb-15 16:30N 25°46' W 080°09'0 0.0
2019-Feb-15 15:57N 25°46' W 080°09'0 0.0
2019-Feb-15 15:27N 25°46' W 080°09'0 0.0
2019-Feb-15 15:00N 25°46' W 080°09'0 0.0
2019-Feb-15 14:30N 25°46' W 080°09'0 0.0
2019-Feb-15 14:00N 25°46' W 080°09'0 0.0
2019-Feb-15 13:30N 25°46' W 080°09'0 0.0
2019-Feb-15 12:57N 25°46' W 080°09'0 0.0
2019-Feb-15 12:27N 25°46' W 080°09'0 0.0
2019-Feb-15 12:00N 25°46' W 080°09'0 0.0
2019-Feb-15 11:30N 25°46' W 080°09'0 0.0
2019-Feb-15 11:01N 25°46' W 080°09'2 3.1
2019-Feb-15 10:30N 25°47' W 080°11'2 4.0
2019-Feb-15 10:01N 25°46' W 080°09'611.1
2019-Feb-15 09:31N 25°46' W 080°03'713.2
2019-Feb-15 09:01N 25°45' W 079°56'815.9
2019-Feb-15 08:30N 25°44' W 079°47'611.0
2019-Feb-15 08:00N 25°41' W 079°41'713.1
2019-Feb-15 07:30N 25°35' W 079°40'814.1
2019-Feb-15 06:58N 25°28' W 079°38'35415.4
2019-Feb-14 08:00N 21°12' W 075°12'   360 / 111013.610.8 23.0 27.0
2019-Feb-11 08:00N 25°54' W 077°48'   110 / 251020.310.8 22.0 27.0
Track history (hours):
 
Tides and Currents Weather Stations Pressure Air Temp Water Temp Dewpoint Dewpoint Depression Visibility Wind Speed Wind Dir Waves Ship Positions

Mariner Of The Seas

Operator: Royal Caribbean Cruises Ltd

Last reported at 2019-Feb-21 08:00 UTC. Time now 2019-Feb-21 13:08 UTC.
Position N 25°54' W 077°30'.

Type: Passenger vessel. MMSI: 311493000.

Wind from 140 at 18 knots

Barometer 1020.0 mb
Air temperature 23.0 ° C
Visibility: greater than 10.8 NM
Water temperature 27.0 ° C

Date/timePositionNaut miles runAvg speedWind from/ knotsBaromVisibWave heightAir tempDewpointWater temp
2019-Feb-21 08:00N 25°54' W 077°30'16 0.3 140 / 181020.010.8 23.0 27.0
2019-Feb-19 09:27N 25°38' W 077°26'612.8
2019-Feb-19 09:00N 25°43' W 077°29'8 7.6
2019-Feb-19 08:00N 25°48' W 077°36'10213.5 100 / 131021.410.8 23.0 27.0
2019-Feb-19 00:28N 26°07' W 079°27'816.5
2019-Feb-19 00:00N 26°03' W 079°35'916.8
2019-Feb-18 23:30N 25°59' W 079°43'917.3
2019-Feb-18 23:00N 25°53' W 079°50'816.7
2019-Feb-18 22:30N 25°49' W 079°58'613.0
2019-Feb-18 22:00N 25°46' W 080°04'5 9.0
2019-Feb-18 21:30N 25°46' W 080°09'0 0.2
2019-Feb-18 21:00N 25°46' W 080°09'0 0.0
2019-Feb-18 20:27N 25°46' W 080°09'0 0.0
2019-Feb-18 20:00N 25°46' W 080°09'0 0.0
2019-Feb-18 19:30N 25°46' W 080°09'0 0.0
2019-Feb-18 19:00N 25°46' W 080°09'0 0.0
2019-Feb-18 18:30N 25°46' W 080°09'0 0.0
2019-Feb-18 18:00N 25°46' W 080°09'0 0.0
2019-Feb-18 17:30N 25°46' W 080°09'0 0.0
2019-Feb-18 17:00N 25°46' W 080°09'0 0.0
2019-Feb-18 16:30N 25°46' W 080°09'0 0.0
2019-Feb-18 16:00N 25°46' W 080°09'0 0.0
2019-Feb-18 15:30N 25°46' W 080°09'0 0.0
2019-Feb-18 15:00N 25°46' W 080°09'0 0.0
2019-Feb-18 14:30N 25°46' W 080°09'0 0.0
2019-Feb-18 14:00N 25°46' W 080°09'0 0.0
2019-Feb-18 13:30N 25°46' W 080°09'0 0.0
2019-Feb-18 13:00N 25°46' W 080°09'0 0.0
2019-Feb-18 12:30N 25°46' W 080°09'0 0.0
2019-Feb-18 12:00N 25°46' W 080°09'0 0.0
2019-Feb-18 11:30N 25°46' W 080°09'0 0.0
2019-Feb-18 11:00N 25°46' W 080°09'1 3.0
2019-Feb-18 10:30N 25°47' W 080°11'2 4.5
2019-Feb-18 10:00N 25°46' W 080°09'612.5
2019-Feb-18 09:30N 25°47' W 080°02'5 9.2
2019-Feb-18 09:01N 25°49' W 079°57'611.1
2019-Feb-18 08:30N 25°52' W 079°52'8314.0
2019-Feb-18 02:35N 26°02' W 078°21'72 3.9
2019-Feb-17 08:00N 25°18' W 077°18'81 3.4 200 / 71014.510.8 22.0 27.0
2019-Feb-16 08:00N 26°06' W 078°30'52 9.4 200 / 101012.510.8 21.0 27.0
2019-Feb-16 02:27N 26°07' W 079°28'5 9.2
2019-Feb-16 01:57N 26°05' W 079°32'4 9.2
2019-Feb-16 01:30N 26°03' W 079°36'5 9.4
2019-Feb-16 01:00N 25°60' W 079°41'5 9.1
2019-Feb-16 00:29N 25°57' W 079°45'4 8.8
2019-Feb-16 00:00N 25°55' W 079°49'4 8.8
2019-Feb-15 23:30N 25°53' W 079°53'4 9.0
2019-Feb-15 23:00N 25°51' W 079°58'4 9.0
2019-Feb-15 22:30N 25°49' W 080°02'510.6
2019-Feb-15 22:00N 25°45' W 080°07'3 5.2
2019-Feb-15 21:30N 25°46' W 080°09'0 0.0
2019-Feb-15 21:00N 25°46' W 080°09'0 0.0
2019-Feb-15 20:30N 25°46' W 080°09'0 0.0
2019-Feb-15 20:00N 25°46' W 080°09'0 0.0
2019-Feb-15 19:30N 25°46' W 080°09'0 0.0
2019-Feb-15 19:00N 25°46' W 080°09'0 0.0
2019-Feb-15 18:30N 25°46' W 080°09'0 0.0
2019-Feb-15 17:57N 25°46' W 080°09'0 0.0
2019-Feb-15 17:30N 25°46' W 080°09'0 0.0
2019-Feb-15 17:00N 25°46' W 080°09'0 0.0
2019-Feb-15 16:30N 25°46' W 080°09'0 0.0
2019-Feb-15 15:57N 25°46' W 080°09'0 0.0
2019-Feb-15 15:27N 25°46' W 080°09'0 0.0
2019-Feb-15 15:00N 25°46' W 080°09'0 0.0
2019-Feb-15 14:30N 25°46' W 080°09'0 0.0
2019-Feb-15 14:00N 25°46' W 080°09'0 0.0
2019-Feb-15 13:30N 25°46' W 080°09'0 0.0
2019-Feb-15 12:57N 25°46' W 080°09'0 0.0
2019-Feb-15 12:27N 25°46' W 080°09'0 0.0
2019-Feb-15 12:00N 25°46' W 080°09'0 0.0
2019-Feb-15 11:30N 25°46' W 080°09'0 0.0
2019-Feb-15 11:01N 25°46' W 080°09'2 3.1
2019-Feb-15 10:30N 25°47' W 080°11'2 4.0
2019-Feb-15 10:01N 25°46' W 080°09'611.1
2019-Feb-15 09:31N 25°46' W 080°03'713.2
2019-Feb-15 09:01N 25°45' W 079°56'815.9
2019-Feb-15 08:30N 25°44' W 079°47'611.0
2019-Feb-15 08:00N 25°41' W 079°41'713.1
2019-Feb-15 07:30N 25°35' W 079°40'814.1
2019-Feb-15 06:58N 25°28' W 079°38'35415.4
2019-Feb-14 08:00N 21°12' W 075°12'   360 / 111013.610.8 23.0 27.0
2019-Feb-11 08:00N 25°54' W 077°48'   110 / 251020.310.8 22.0 27.0

Dump ship's entire track history